GRZ520 Details

Departure: Ted Stevens Anchorage International Airport (PANC)
Arrival: Adak Airport (PADK) at N/A
Route: TED J115 TUCKS J115 BINAL J115 DUT SIYNY ADK
Notes:


Current Weather Information
PANC 231153Z 32006KT 10SM -RA BKN060 BKN075 03/00 A2943 RMK AO2 PRESFR SLP968 P0000 60000 T00330000 10044 20033 56068
PADK 231156Z AUTO 29010G20KT 10SM FEW036 BKN046 BKN055 04/M02 A2992 RMK AO2 RAE30 SLP132 P0000 60002 70013 T00391017 10050 20028 51006